sensor_id;sensor_type;location;lat;lon;timestamp;pressure;altitude;pressure_sealevel;temperature;humidity
57847;BME280;43675;50.030;21.952;2023-05-25T00:00:34;99074.13;;;11.55;82.59
57847;BME280;43675;50.030;21.952;2023-05-25T00:03:21;99070.55;;;11.56;82.67
57847;BME280;43675;50.030;21.952;2023-05-25T00:05:47;99070.27;;;11.58;82.55
57847;BME280;43675;50.030;21.952;2023-05-25T00:08:14;99073.80;;;11.56;82.63
57847;BME280;43675;50.030;21.952;2023-05-25T00:10:41;99071.15;;;11.55;82.64
57847;BME280;43675;50.030;21.952;2023-05-25T00:13:07;99073.47;;;11.56;82.90
57847;BME280;43675;50.030;21.952;2023-05-25T00:15:34;99077.03;;;11.56;82.85
57847;BME280;43675;50.030;21.952;2023-05-25T00:18:00;99077.92;;;11.58;83.07
57847;BME280;43675;50.030;21.952;2023-05-25T00:20:27;99076.27;;;11.61;83.15
57847;BME280;43675;50.030;21.952;2023-05-25T00:22:53;99078.12;;;11.65;83.14
57847;BME280;43675;50.030;21.952;2023-05-25T00:25:20;99078.96;;;11.70;83.31
57847;BME280;43675;50.030;21.952;2023-05-25T00:27:47;99079.33;;;11.74;83.24
57847;BME280;43675;50.030;21.952;2023-05-25T00:30:13;99079.55;;;11.80;83.25
57847;BME280;43675;50.030;21.952;2023-05-25T00:32:40;99081.05;;;11.86;83.21
57847;BME280;43675;50.030;21.952;2023-05-25T00:35:07;99083.46;;;11.93;83.21
57847;BME280;43675;50.030;21.952;2023-05-25T00:37:34;99084.23;;;12.00;83.19
57847;BME280;43675;50.030;21.952;2023-05-25T00:40:00;99082.98;;;12.08;83.03
57847;BME280;43675;50.030;21.952;2023-05-25T00:42:28;99080.48;;;12.14;82.90
57847;BME280;43675;50.030;21.952;2023-05-25T00:44:55;99082.88;;;12.21;82.82
57847;BME280;43675;50.030;21.952;2023-05-25T00:47:22;99084.34;;;12.28;82.67
57847;BME280;43675;50.030;21.952;2023-05-25T00:49:49;99083.89;;;12.33;82.61
57847;BME280;43675;50.030;21.952;2023-05-25T00:52:16;99080.92;;;12.39;82.42
57847;BME280;43675;50.030;21.952;2023-05-25T00:54:45;99079.43;;;12.45;82.32
57847;BME280;43675;50.030;21.952;2023-05-25T00:57:13;99077.67;;;12.50;82.13
57847;BME280;43675;50.030;21.952;2023-05-25T00:59:48;99078.66;;;12.55;82.04
57847;BME280;43675;50.030;21.952;2023-05-25T01:02:18;99080.95;;;12.59;81.88
57847;BME280;43675;50.030;21.952;2023-05-25T01:04:55;99083.04;;;12.63;81.80
57847;BME280;43675;50.030;21.952;2023-05-25T01:07:23;99082.11;;;12.66;81.66
57847;BME280;43675;50.030;21.952;2023-05-25T01:09:56;99086.05;;;12.71;81.52
57847;BME280;43675;50.030;21.952;2023-05-25T01:12:26;99087.67;;;12.74;81.40
57847;BME280;43675;50.030;21.952;2023-05-25T01:14:55;99086.70;;;12.79;81.25
57847;BME280;43675;50.030;21.952;2023-05-25T01:17:22;99089.23;;;12.83;81.06
57847;BME280;43675;50.030;21.952;2023-05-25T01:19:49;99087.36;;;12.83;81.06
57847;BME280;43675;50.030;21.952;2023-05-25T01:22:23;99088.08;;;12.83;81.03
57847;BME280;43675;50.030;21.952;2023-05-25T01:24:55;99089.72;;;12.84;80.98
57847;BME280;43675;50.030;21.952;2023-05-25T01:27:30;99089.58;;;12.86;80.85
57847;BME280;43675;50.030;21.952;2023-05-25T01:29:58;99085.02;;;12.89;80.77
57847;BME280;43675;50.030;21.952;2023-05-25T01:32:27;99080.38;;;12.92;80.62
57847;BME280;43675;50.030;21.952;2023-05-25T01:34:56;99077.92;;;12.94;80.54
57847;BME280;43675;50.030;21.952;2023-05-25T01:37:23;99079.17;;;12.94;80.49
57847;BME280;43675;50.030;21.952;2023-05-25T01:39:50;99072.33;;;12.94;80.39
57847;BME280;43675;50.030;21.952;2023-05-25T01:42:16;99071.75;;;12.93;80.44
57847;BME280;43675;50.030;21.952;2023-05-25T01:44:43;99074.41;;;12.92;80.41
57847;BME280;43675;50.030;21.952;2023-05-25T01:47:21;99073.98;;;12.90;80.46
57847;BME280;43675;50.030;21.952;2023-05-25T01:50:03;99074.25;;;12.91;80.41
57847;BME280;43675;50.030;21.952;2023-05-25T01:52:35;99077.69;;;12.92;80.32
57847;BME280;43675;50.030;21.952;2023-05-25T01:55:14;99077.65;;;12.92;80.22
57847;BME280;43675;50.030;21.952;2023-05-25T01:57:47;99072.50;;;12.92;80.18
57847;BME280;43675;50.030;21.952;2023-05-25T02:00:15;99072.09;;;12.93;80.11
57847;BME280;43675;50.030;21.952;2023-05-25T02:02:43;99074.53;;;12.94;80.05
57847;BME280;43675;50.030;21.952;2023-05-25T02:05:12;99074.25;;;12.95;80.05
57847;BME280;43675;50.030;21.952;2023-05-25T02:07:39;99080.48;;;12.95;79.98
57847;BME280;43675;50.030;21.952;2023-05-25T02:10:06;99076.36;;;12.92;80.04
57847;BME280;43675;50.030;21.952;2023-05-25T02:12:33;99070.23;;;12.91;80.10
57847;BME280;43675;50.030;21.952;2023-05-25T02:14:59;99072.55;;;12.92;80.08
57847;BME280;43675;50.030;21.952;2023-05-25T02:17:26;99075.55;;;12.90;80.10
57847;BME280;43675;50.030;21.952;2023-05-25T02:19:53;99081.63;;;12.90;80.00
57847;BME280;43675;50.030;21.952;2023-05-25T02:22:20;99078.23;;;12.90;79.93
57847;BME280;43675;50.030;21.952;2023-05-25T02:24:47;99076.17;;;12.90;79.84
57847;BME280;43675;50.030;21.952;2023-05-25T02:27:14;99072.79;;;12.90;79.89
57847;BME280;43675;50.030;21.952;2023-05-25T02:29:41;99080.27;;;12.90;79.88
57847;BME280;43675;50.030;21.952;2023-05-25T02:32:08;99081.56;;;12.88;79.81
57847;BME280;43675;50.030;21.952;2023-05-25T02:34:34;99084.90;;;12.87;79.86
57847;BME280;43675;50.030;21.952;2023-05-25T02:37:01;99082.97;;;12.85;79.79
57847;BME280;43675;50.030;21.952;2023-05-25T02:39:28;99084.35;;;12.83;79.74
57847;BME280;43675;50.030;21.952;2023-05-25T02:41:54;99083.73;;;12.82;79.81
57847;BME280;43675;50.030;21.952;2023-05-25T02:44:21;99089.07;;;12.82;79.70
57847;BME280;43675;50.030;21.952;2023-05-25T02:46:47;99088.84;;;12.82;79.72
57847;BME280;43675;50.030;21.952;2023-05-25T02:49:14;99090.99;;;12.81;79.72
57847;BME280;43675;50.030;21.952;2023-05-25T02:51:40;99090.37;;;12.81;79.68
57847;BME280;43675;50.030;21.952;2023-05-25T02:54:07;99088.75;;;12.82;79.65
57847;BME280;43675;50.030;21.952;2023-05-25T02:56:34;99092.30;;;12.84;79.64
57847;BME280;43675;50.030;21.952;2023-05-25T02:59:00;99090.89;;;12.83;79.58
57847;BME280;43675;50.030;21.952;2023-05-25T03:01:27;99091.14;;;12.84;79.55
57847;BME280;43675;50.030;21.952;2023-05-25T03:03:57;99089.42;;;12.86;79.50
57847;BME280;43675;50.030;21.952;2023-05-25T03:06:23;99090.61;;;12.88;79.45
57847;BME280;43675;50.030;21.952;2023-05-25T03:08:50;99096.33;;;12.90;79.35
57847;BME280;43675;50.030;21.952;2023-05-25T03:11:17;99096.77;;;12.86;79.30
57847;BME280;43675;50.030;21.952;2023-05-25T03:13:43;99097.80;;;12.85;79.33
57847;BME280;43675;50.030;21.952;2023-05-25T03:16:10;99096.85;;;12.85;79.24
57847;BME280;43675;50.030;21.952;2023-05-25T03:18:37;99102.02;;;12.83;79.26
57847;BME280;43675;50.030;21.952;2023-05-25T03:21:03;99105.56;;;12.83;79.30
57847;BME280;43675;50.030;21.952;2023-05-25T03:23:30;99110.48;;;12.83;79.21
57847;BME280;43675;50.030;21.952;2023-05-25T03:25:57;99107.71;;;12.84;79.03
57847;BME280;43675;50.030;21.952;2023-05-25T03:28:24;99114.66;;;12.84;79.03
57847;BME280;43675;50.030;21.952;2023-05-25T03:30:50;99115.51;;;12.84;78.90
57847;BME280;43675;50.030;21.952;2023-05-25T03:33:17;99124.81;;;12.85;78.88
57847;BME280;43675;50.030;21.952;2023-05-25T03:35:44;99125.06;;;12.84;78.82
57847;BME280;43675;50.030;21.952;2023-05-25T03:38:10;99124.73;;;12.84;78.80
57847;BME280;43675;50.030;21.952;2023-05-25T03:40:37;99127.84;;;12.85;78.78
57847;BME280;43675;50.030;21.952;2023-05-25T03:43:04;99127.02;;;12.83;78.68
57847;BME280;43675;50.030;21.952;2023-05-25T03:45:31;99123.95;;;12.83;78.63
57847;BME280;43675;50.030;21.952;2023-05-25T03:47:57;99121.56;;;12.83;78.61
57847;BME280;43675;50.030;21.952;2023-05-25T03:50:24;99121.73;;;12.83;78.57
57847;BME280;43675;50.030;21.952;2023-05-25T03:52:51;99121.58;;;12.81;78.57
57847;BME280;43675;50.030;21.952;2023-05-25T03:55:17;99122.10;;;12.83;78.61
57847;BME280;43675;50.030;21.952;2023-05-25T03:57:44;99124.83;;;12.85;78.55
57847;BME280;43675;50.030;21.952;2023-05-25T04:00:11;99128.11;;;12.87;78.56
57847;BME280;43675;50.030;21.952;2023-05-25T04:02:38;99127.73;;;12.90;78.55
57847;BME280;43675;50.030;21.952;2023-05-25T04:05:05;99136.66;;;12.94;78.47
57847;BME280;43675;50.030;21.952;2023-05-25T04:07:32;99138.80;;;12.98;78.36
57847;BME280;43675;50.030;21.952;2023-05-25T04:09:59;99140.98;;;13.00;78.25
57847;BME280;43675;50.030;21.952;2023-05-25T04:12:26;99141.95;;;12.99;78.25
57847;BME280;43675;50.030;21.952;2023-05-25T04:14:53;99149.27;;;13.02;78.20
57847;BME280;43675;50.030;21.952;2023-05-25T04:17:20;99152.17;;;13.02;78.10
57847;BME280;43675;50.030;21.952;2023-05-25T04:19:46;99155.43;;;13.03;78.04
57847;BME280;43675;50.030;21.952;2023-05-25T04:22:13;99152.02;;;13.02;78.04
57847;BME280;43675;50.030;21.952;2023-05-25T04:24:40;99158.43;;;13.07;78.03
57847;BME280;43675;50.030;21.952;2023-05-25T04:27:06;99154.83;;;13.12;78.04
57847;BME280;43675;50.030;21.952;2023-05-25T04:29:33;99155.70;;;13.17;77.81
57847;BME280;43675;50.030;21.952;2023-05-25T04:32:03;99153.91;;;13.24;77.73
57847;BME280;43675;50.030;21.952;2023-05-25T04:34:30;99153.32;;;13.29;77.51
57847;BME280;43675;50.030;21.952;2023-05-25T04:36:56;99151.01;;;13.33;77.41
57847;BME280;43675;50.030;21.952;2023-05-25T04:39:23;99156.17;;;13.34;77.26
57847;BME280;43675;50.030;21.952;2023-05-25T04:41:50;99151.57;;;13.35;77.27
57847;BME280;43675;50.030;21.952;2023-05-25T04:44:16;99150.44;;;13.37;77.28
57847;BME280;43675;50.030;21.952;2023-05-25T04:46:43;99150.70;;;13.39;77.22
57847;BME280;43675;50.030;21.952;2023-05-25T04:49:11;99154.40;;;13.39;77.11
57847;BME280;43675;50.030;21.952;2023-05-25T04:51:37;99153.09;;;13.37;77.14
57847;BME280;43675;50.030;21.952;2023-05-25T04:54:04;99154.17;;;13.37;77.14
57847;BME280;43675;50.030;21.952;2023-05-25T04:56:31;99156.05;;;13.34;77.13
57847;BME280;43675;50.030;21.952;2023-05-25T04:58:58;99155.84;;;13.30;77.20
57847;BME280;43675;50.030;21.952;2023-05-25T05:01:24;99151.81;;;13.32;77.24
57847;BME280;43675;50.030;21.952;2023-05-25T05:03:51;99153.50;;;13.36;77.20
57847;BME280;43675;50.030;21.952;2023-05-25T05:06:18;99154.79;;;13.41;77.12
57847;BME280;43675;50.030;21.952;2023-05-25T05:08:44;99151.00;;;13.47;77.10
57847;BME280;43675;50.030;21.952;2023-05-25T05:11:11;99152.63;;;13.56;77.04
57847;BME280;43675;50.030;21.952;2023-05-25T05:13:38;99156.27;;;13.68;76.91
57847;BME280;43675;50.030;21.952;2023-05-25T05:16:05;99159.29;;;13.82;76.66
57847;BME280;43675;50.030;21.952;2023-05-25T05:18:35;99156.95;;;13.84;76.41
57847;BME280;43675;50.030;21.952;2023-05-25T05:21:01;99161.80;;;13.79;76.26
57847;BME280;43675;50.030;21.952;2023-05-25T05:23:28;99167.47;;;13.78;76.40
57847;BME280;43675;50.030;21.952;2023-05-25T05:25:55;99166.48;;;13.82;76.37
57847;BME280;43675;50.030;21.952;2023-05-25T05:28:21;99165.80;;;13.86;76.15
57847;BME280;43675;50.030;21.952;2023-05-25T05:30:48;99164.55;;;13.87;76.06
57847;BME280;43675;50.030;21.952;2023-05-25T05:33:14;99164.15;;;13.90;76.00
57847;BME280;43675;50.030;21.952;2023-05-25T05:35:41;99173.46;;;13.93;75.83
57847;BME280;43675;50.030;21.952;2023-05-25T05:38:08;99173.56;;;13.95;75.71
57847;BME280;43675;50.030;21.952;2023-05-25T05:40:34;99172.66;;;13.97;75.70
57847;BME280;43675;50.030;21.952;2023-05-25T05:43:01;99170.25;;;14.06;75.53
57847;BME280;43675;50.030;21.952;2023-05-25T05:45:28;99168.30;;;14.09;75.34
57847;BME280;43675;50.030;21.952;2023-05-25T05:47:54;99171.70;;;14.13;75.25
57847;BME280;43675;50.030;21.952;2023-05-25T05:50:21;99172.48;;;14.18;74.98
57847;BME280;43675;50.030;21.952;2023-05-25T05:52:48;99177.04;;;14.18;75.00
57847;BME280;43675;50.030;21.952;2023-05-25T05:55:14;99182.73;;;14.21;74.89
57847;BME280;43675;50.030;21.952;2023-05-25T05:57:41;99185.23;;;14.24;74.64
57847;BME280;43675;50.030;21.952;2023-05-25T06:00:08;99189.52;;;14.27;74.74
57847;BME280;43675;50.030;21.952;2023-05-25T06:02:35;99189.64;;;14.34;74.74
57847;BME280;43675;50.030;21.952;2023-05-25T06:05:02;99191.91;;;14.42;74.37
57847;BME280;43675;50.030;21.952;2023-05-25T06:07:28;99195.70;;;14.43;74.15
57847;BME280;43675;50.030;21.952;2023-05-25T06:09:55;99197.45;;;14.39;73.98
57847;BME280;43675;50.030;21.952;2023-05-25T06:12:22;99203.83;;;14.34;74.14
57847;BME280;43675;50.030;21.952;2023-05-25T06:14:48;99208.88;;;14.36;74.26
57847;BME280;43675;50.030;21.952;2023-05-25T06:17:15;99207.87;;;14.40;74.07
57847;BME280;43675;50.030;21.952;2023-05-25T06:19:42;99209.55;;;14.47;74.15
57847;BME280;43675;50.030;21.952;2023-05-25T06:22:08;99216.38;;;14.58;73.90
57847;BME280;43675;50.030;21.952;2023-05-25T06:24:35;99217.16;;;14.65;73.60
57847;BME280;43675;50.030;21.952;2023-05-25T06:27:03;99219.90;;;14.65;73.39
57847;BME280;43675;50.030;21.952;2023-05-25T06:29:29;99218.59;;;14.63;73.28
57847;BME280;43675;50.030;21.952;2023-05-25T06:31:56;99225.08;;;14.60;73.17
57847;BME280;43675;50.030;21.952;2023-05-25T06:34:23;99222.29;;;14.51;73.20
57847;BME280;43675;50.030;21.952;2023-05-25T06:36:49;99225.29;;;14.43;73.37
57847;BME280;43675;50.030;21.952;2023-05-25T06:39:16;99224.69;;;14.36;73.59
57847;BME280;43675;50.030;21.952;2023-05-25T06:41:43;99222.23;;;14.32;73.59
57847;BME280;43675;50.030;21.952;2023-05-25T06:44:10;99223.55;;;14.30;73.86
57847;BME280;43675;50.030;21.952;2023-05-25T06:46:36;99224.33;;;14.36;73.92
57847;BME280;43675;50.030;21.952;2023-05-25T06:49:03;99226.02;;;14.44;73.80
57847;BME280;43675;50.030;21.952;2023-05-25T06:51:30;99226.63;;;14.48;73.57
57847;BME280;43675;50.030;21.952;2023-05-25T06:53:57;99231.21;;;14.48;73.40
57847;BME280;43675;50.030;21.952;2023-05-25T06:56:24;99230.00;;;14.41;73.42
57847;BME280;43675;50.030;21.952;2023-05-25T06:58:50;99232.14;;;14.34;73.49
57847;BME280;43675;50.030;21.952;2023-05-25T07:01:17;99235.83;;;14.30;73.54
57847;BME280;43675;50.030;21.952;2023-05-25T07:03:43;99237.55;;;14.28;73.68
57847;BME280;43675;50.030;21.952;2023-05-25T07:06:10;99241.79;;;14.33;73.75
57847;BME280;43675;50.030;21.952;2023-05-25T07:08:37;99239.15;;;14.40;73.69
57847;BME280;43675;50.030;21.952;2023-05-25T07:11:03;99237.40;;;14.45;73.51
57847;BME280;43675;50.030;21.952;2023-05-25T07:13:30;99236.52;;;14.48;73.55
57847;BME280;43675;50.030;21.952;2023-05-25T07:15:56;99235.13;;;14.50;73.43
57847;BME280;43675;50.030;21.952;2023-05-25T07:18:24;99232.58;;;14.52;73.40
57847;BME280;43675;50.030;21.952;2023-05-25T07:20:51;99235.04;;;14.55;73.48
57847;BME280;43675;50.030;21.952;2023-05-25T07:23:18;99239.58;;;14.57;73.26
57847;BME280;43675;50.030;21.952;2023-05-25T07:25:44;99238.52;;;14.58;73.21
57847;BME280;43675;50.030;21.952;2023-05-25T07:28:11;99236.77;;;14.59;73.27
57847;BME280;43675;50.030;21.952;2023-05-25T07:30:39;99244.70;;;14.63;73.10
57847;BME280;43675;50.030;21.952;2023-05-25T07:33:06;99244.55;;;14.68;73.02
57847;BME280;43675;50.030;21.952;2023-05-25T07:35:32;99247.65;;;14.76;72.88
57847;BME280;43675;50.030;21.952;2023-05-25T07:38:02;99249.42;;;14.89;72.79
57847;BME280;43675;50.030;21.952;2023-05-25T07:40:29;99246.89;;;15.07;72.64
57847;BME280;43675;50.030;21.952;2023-05-25T07:42:56;99249.91;;;15.20;72.30
57847;BME280;43675;50.030;21.952;2023-05-25T07:45:23;99252.42;;;15.33;72.05
57847;BME280;43675;50.030;21.952;2023-05-25T07:47:50;99253.08;;;15.41;71.68
57847;BME280;43675;50.030;21.952;2023-05-25T07:50:17;99252.83;;;15.40;71.34
57847;BME280;43675;50.030;21.952;2023-05-25T07:52:44;99250.91;;;15.37;71.49
57847;BME280;43675;50.030;21.952;2023-05-25T07:55:10;99250.26;;;15.47;71.48
57847;BME280;43675;50.030;21.952;2023-05-25T07:57:37;99251.09;;;15.55;71.16
57847;BME280;43675;50.030;21.952;2023-05-25T08:00:04;99251.45;;;15.55;70.91
57847;BME280;43675;50.030;21.952;2023-05-25T08:02:31;99255.49;;;15.63;70.87
57847;BME280;43675;50.030;21.952;2023-05-25T08:04:58;99249.57;;;15.64;70.54
57847;BME280;43675;50.030;21.952;2023-05-25T08:07:24;99252.16;;;15.63;70.51
57847;BME280;43675;50.030;21.952;2023-05-25T08:09:51;99253.55;;;15.70;70.57
57847;BME280;43675;50.030;21.952;2023-05-25T08:12:18;99246.30;;;15.85;70.36
57847;BME280;43675;50.030;21.952;2023-05-25T08:14:44;99246.09;;;15.94;70.00
57847;BME280;43675;50.030;21.952;2023-05-25T08:17:11;99247.78;;;15.99;69.77
57847;BME280;43675;50.030;21.952;2023-05-25T08:19:37;99253.40;;;16.04;69.56
57847;BME280;43675;50.030;21.952;2023-05-25T08:22:04;99254.25;;;16.08;69.28
57847;BME280;43675;50.030;21.952;2023-05-25T08:24:30;99257.48;;;16.05;69.20
57847;BME280;43675;50.030;21.952;2023-05-25T08:26:57;99258.09;;;16.05;69.25
57847;BME280;43675;50.030;21.952;2023-05-25T08:29:24;99258.26;;;16.10;69.13
57847;BME280;43675;50.030;21.952;2023-05-25T08:31:50;99257.33;;;16.24;69.04
57847;BME280;43675;50.030;21.952;2023-05-25T08:34:17;99256.80;;;16.44;68.86
57847;BME280;43675;50.030;21.952;2023-05-25T08:36:43;99252.02;;;16.63;68.37
57847;BME280;43675;50.030;21.952;2023-05-25T08:39:10;99257.15;;;16.77;67.90
57847;BME280;43675;50.030;21.952;2023-05-25T08:41:41;99253.44;;;16.82;67.45
57847;BME280;43675;50.030;21.952;2023-05-25T08:44:09;99258.98;;;16.82;67.33
57847;BME280;43675;50.030;21.952;2023-05-25T08:46:36;99266.42;;;16.93;67.02
57847;BME280;43675;50.030;21.952;2023-05-25T08:49:15;99263.48;;;16.87;66.76
57847;BME280;43675;50.030;21.952;2023-05-25T08:54:12;99266.65;;;16.89;67.15
57847;BME280;43675;50.030;21.952;2023-05-25T08:56:53;99268.15;;;16.91;66.99
57847;BME280;43675;50.030;21.952;2023-05-25T09:01:51;99263.45;;;17.05;66.96
57847;BME280;43675;50.030;21.952;2023-05-25T09:04:19;99264.66;;;17.27;66.69
57847;BME280;43675;50.030;21.952;2023-05-25T09:06:46;99265.42;;;17.47;66.21
57847;BME280;43675;50.030;21.952;2023-05-25T09:09:13;99265.80;;;17.57;65.71
57847;BME280;43675;50.030;21.952;2023-05-25T09:11:40;99268.20;;;17.54;65.54
57847;BME280;43675;50.030;21.952;2023-05-25T09:14:07;99265.77;;;17.44;65.62
57847;BME280;43675;50.030;21.952;2023-05-25T09:16:36;99263.86;;;17.36;65.58
57847;BME280;43675;50.030;21.952;2023-05-25T09:19:02;99263.89;;;17.29;65.77
57847;BME280;43675;50.030;21.952;2023-05-25T09:21:29;99263.94;;;17.43;65.94
57847;BME280;43675;50.030;21.952;2023-05-25T09:23:57;99261.21;;;17.66;65.47
57847;BME280;43675;50.030;21.952;2023-05-25T09:26:25;99260.65;;;17.84;65.19
57847;BME280;43675;50.030;21.952;2023-05-25T09:28:51;99262.70;;;18.01;64.74
57847;BME280;43675;50.030;21.952;2023-05-25T09:31:18;99258.35;;;18.12;64.50
57847;BME280;43675;50.030;21.952;2023-05-25T09:33:45;99262.23;;;18.21;64.13
57847;BME280;43675;50.030;21.952;2023-05-25T09:36:11;99268.67;;;18.22;63.89
57847;BME280;43675;50.030;21.952;2023-05-25T09:38:39;99273.52;;;18.23;63.96
57847;BME280;43675;50.030;21.952;2023-05-25T09:41:06;99273.35;;;18.38;63.67
57847;BME280;43675;50.030;21.952;2023-05-25T09:43:32;99269.59;;;18.41;63.15
57847;BME280;43675;50.030;21.952;2023-05-25T09:45:59;99269.17;;;18.42;62.92
57847;BME280;43675;50.030;21.952;2023-05-25T09:48:25;99270.98;;;18.50;62.86
57847;BME280;43675;50.030;21.952;2023-05-25T09:50:52;99271.19;;;18.69;62.95
57847;BME280;43675;50.030;21.952;2023-05-25T09:53:19;99269.48;;;18.90;62.34
57847;BME280;43675;50.030;21.952;2023-05-25T09:55:47;99270.09;;;18.94;61.68
57847;BME280;43675;50.030;21.952;2023-05-25T09:58:14;99272.73;;;18.79;61.72
57847;BME280;43675;50.030;21.952;2023-05-25T10:00:41;99272.07;;;18.53;61.76
57847;BME280;43675;50.030;21.952;2023-05-25T10:03:07;99271.88;;;18.37;62.22
57847;BME280;43675;50.030;21.952;2023-05-25T10:05:34;99272.90;;;18.33;62.39
57847;BME280;43675;50.030;21.952;2023-05-25T10:08:01;99277.72;;;18.31;62.35
57847;BME280;43675;50.030;21.952;2023-05-25T10:10:29;99275.90;;;18.22;62.46
57847;BME280;43675;50.030;21.952;2023-05-25T10:12:56;99278.26;;;18.20;62.51
57847;BME280;43675;50.030;21.952;2023-05-25T10:15:23;99277.02;;;18.17;62.48
57847;BME280;43675;50.030;21.952;2023-05-25T10:17:52;99278.80;;;18.20;62.56
57847;BME280;43675;50.030;21.952;2023-05-25T10:20:20;99274.87;;;18.22;62.40
57847;BME280;43675;50.030;21.952;2023-05-25T10:25:28;99271.86;;;18.59;62.15
57847;BME280;43675;50.030;21.952;2023-05-25T10:28:01;99267.34;;;18.78;61.79
57847;BME280;43675;50.030;21.952;2023-05-25T10:30:29;99264.05;;;18.90;61.35
57847;BME280;43675;50.030;21.952;2023-05-25T10:32:55;99267.27;;;19.03;61.30
57847;BME280;43675;50.030;21.952;2023-05-25T10:35:23;99265.42;;;19.04;60.70
57847;BME280;43675;50.030;21.952;2023-05-25T10:37:51;99262.63;;;19.03;60.80
57847;BME280;43675;50.030;21.952;2023-05-25T10:40:20;99260.67;;;19.08;60.73
57847;BME280;43675;50.030;21.952;2023-05-25T10:42:47;99260.80;;;19.05;60.63
57847;BME280;43675;50.030;21.952;2023-05-25T10:45:15;99263.48;;;19.02;60.61
57847;BME280;43675;50.030;21.952;2023-05-25T10:47:41;99257.99;;;18.98;60.45
57847;BME280;43675;50.030;21.952;2023-05-25T10:52:45;99253.34;;;18.94;60.48
57847;BME280;43675;50.030;21.952;2023-05-25T10:55:11;99251.39;;;18.81;60.42
57847;BME280;43675;50.030;21.952;2023-05-25T10:57:38;99250.00;;;18.65;60.80
57847;BME280;43675;50.030;21.952;2023-05-25T11:00:07;99241.10;;;18.67;60.85
57847;BME280;43675;50.030;21.952;2023-05-25T11:02:50;99244.87;;;18.72;60.79
57847;BME280;43675;50.030;21.952;2023-05-25T11:07:56;99244.45;;;19.07;60.58
57847;BME280;43675;50.030;21.952;2023-05-25T11:18:51;99242.85;;;19.64;59.36
57847;BME280;43675;50.030;21.952;2023-05-25T11:23:59;99241.05;;;20.06;58.43
57847;BME280;43675;50.030;21.952;2023-05-25T11:26:39;99242.39;;;20.17;58.29
57847;BME280;43675;50.030;21.952;2023-05-25T11:29:14;99235.05;;;20.28;58.08
57847;BME280;43675;50.030;21.952;2023-05-25T11:31:41;99227.83;;;20.38;57.78
57847;BME280;43675;50.030;21.952;2023-05-25T11:34:08;99231.11;;;20.51;57.25
57847;BME280;43675;50.030;21.952;2023-05-25T11:36:35;99233.39;;;20.59;57.22
57847;BME280;43675;50.030;21.952;2023-05-25T11:39:04;99234.77;;;20.54;56.69
57847;BME280;43675;50.030;21.952;2023-05-25T11:41:30;99233.25;;;20.33;56.65
57847;BME280;43675;50.030;21.952;2023-05-25T11:44:04;99241.94;;;20.15;56.76
57847;BME280;43675;50.030;21.952;2023-05-25T11:46:31;99238.23;;;20.01;57.24
57847;BME280;43675;50.030;21.952;2023-05-25T11:48:59;99236.18;;;20.01;57.36
57847;BME280;43675;50.030;21.952;2023-05-25T11:51:27;99233.80;;;20.05;57.39
57847;BME280;43675;50.030;21.952;2023-05-25T11:53:55;99228.09;;;20.08;57.33
57847;BME280;43675;50.030;21.952;2023-05-25T11:56:22;99235.81;;;20.04;57.27
57847;BME280;43675;50.030;21.952;2023-05-25T11:58:49;99236.71;;;19.93;57.32
57847;BME280;43675;50.030;21.952;2023-05-25T12:01:20;99237.33;;;19.95;57.49
57847;BME280;43675;50.030;21.952;2023-05-25T12:03:48;99232.62;;;19.99;57.32
57847;BME280;43675;50.030;21.952;2023-05-25T12:06:29;99227.06;;;20.00;57.49
57847;BME280;43675;50.030;21.952;2023-05-25T12:08:57;99229.64;;;20.01;57.51
57847;BME280;43675;50.030;21.952;2023-05-25T12:11:35;99227.74;;;20.04;57.45
57847;BME280;43675;50.030;21.952;2023-05-25T12:14:03;99228.60;;;19.94;57.53
57847;BME280;43675;50.030;21.952;2023-05-25T12:16:31;99228.10;;;19.93;57.46
57847;BME280;43675;50.030;21.952;2023-05-25T12:18:58;99224.86;;;19.97;57.53
57847;BME280;43675;50.030;21.952;2023-05-25T12:21:26;99219.60;;;19.91;57.41
57847;BME280;43675;50.030;21.952;2023-05-25T12:23:53;99217.51;;;19.88;57.48
57847;BME280;43675;50.030;21.952;2023-05-25T12:26:20;99217.73;;;19.83;57.59
57847;BME280;43675;50.030;21.952;2023-05-25T12:29:00;99211.67;;;19.97;57.60
57847;BME280;43675;50.030;21.952;2023-05-25T12:31:31;99207.80;;;20.19;57.26
57847;BME280;43675;50.030;21.952;2023-05-25T12:34:08;99207.31;;;20.38;56.95
57847;BME280;43675;50.030;21.952;2023-05-25T12:36:48;99210.26;;;20.47;56.69
57847;BME280;43675;50.030;21.952;2023-05-25T12:39:17;99203.37;;;20.54;56.56
57847;BME280;43675;50.030;21.952;2023-05-25T12:41:47;99200.78;;;20.61;56.18
57847;BME280;43675;50.030;21.952;2023-05-25T12:44:28;99197.29;;;20.51;56.18
57847;BME280;43675;50.030;21.952;2023-05-25T12:46:56;99197.76;;;20.36;56.39
57847;BME280;43675;50.030;21.952;2023-05-25T12:49:26;99196.63;;;20.35;56.56
57847;BME280;43675;50.030;21.952;2023-05-25T12:51:54;99192.40;;;20.41;56.51
57847;BME280;43675;50.030;21.952;2023-05-25T12:54:45;99188.63;;;20.52;56.57
57847;BME280;43675;50.030;21.952;2023-05-25T12:57:13;99184.98;;;20.53;56.23
57847;BME280;43675;50.030;21.952;2023-05-25T12:59:45;99186.30;;;20.44;56.40
57847;BME280;43675;50.030;21.952;2023-05-25T13:02:13;99184.44;;;20.38;56.27
57847;BME280;43675;50.030;21.952;2023-05-25T13:04:41;99186.85;;;20.27;56.61
57847;BME280;43675;50.030;21.952;2023-05-25T13:07:08;99184.11;;;20.30;56.71
57847;BME280;43675;50.030;21.952;2023-05-25T13:09:35;99185.11;;;20.36;56.59
57847;BME280;43675;50.030;21.952;2023-05-25T13:12:03;99182.95;;;20.39;56.41
57847;BME280;43675;50.030;21.952;2023-05-25T13:14:30;99190.17;;;20.25;56.60
57847;BME280;43675;50.030;21.952;2023-05-25T13:16:56;99182.38;;;20.09;56.76